createdAt,value
2023-04-26T00:00:04.269Z,916.00
2023-04-26T00:01:04.293Z,917.00
2023-04-26T00:02:05.306Z,921.00
2023-04-26T00:03:05.432Z,898.00
2023-04-26T00:04:04.601Z,890.00
2023-04-26T00:05:05.598Z,916.00
2023-04-26T00:06:04.365Z,908.00
2023-04-26T00:07:04.377Z,923.00
2023-04-26T00:08:05.414Z,915.00
2023-04-26T00:09:04.424Z,920.00
2023-04-26T00:10:05.459Z,902.00
2023-04-26T00:11:05.488Z,907.00
2023-04-26T00:12:05.490Z,927.00
2023-04-26T00:13:05.533Z,917.00
2023-04-26T00:14:05.574Z,913.00
2023-04-26T00:15:04.689Z,901.00
2023-04-26T00:16:05.694Z,897.00
2023-04-26T00:17:05.627Z,923.00
2023-04-26T00:18:04.700Z,902.00
2023-04-26T00:19:05.679Z,917.00
2023-04-26T00:20:05.718Z,906.00
2023-04-26T00:21:05.736Z,912.00
2023-04-26T00:22:05.761Z,906.00
2023-04-26T00:23:05.772Z,902.00
2023-04-26T00:24:05.808Z,890.00
2023-04-26T00:25:05.847Z,896.00
2023-04-26T00:26:05.894Z,883.00
2023-04-26T00:27:05.885Z,885.00
2023-04-26T00:28:05.906Z,878.00
2023-04-26T00:29:05.918Z,885.00
2023-04-26T00:30:05.976Z,905.00
2023-04-26T00:31:05.960Z,884.00
2023-04-26T00:32:06.095Z,903.00
2023-04-26T00:33:05.102Z,897.00
2023-04-26T00:34:06.030Z,901.00
2023-04-26T00:35:06.058Z,890.00
2023-04-26T00:36:05.094Z,905.00
2023-04-26T00:37:06.200Z,896.00
2023-04-26T00:38:06.526Z,884.00
2023-04-26T00:39:06.179Z,897.00
2023-04-26T00:40:06.193Z,907.00
2023-04-26T00:41:06.253Z,885.00
2023-04-26T00:42:05.248Z,919.00
2023-04-26T00:43:05.281Z,890.00
2023-04-26T00:44:05.301Z,892.00
2023-04-26T00:45:05.331Z,892.00
2023-04-26T00:46:05.425Z,887.00
2023-04-26T00:47:06.382Z,878.00
2023-04-26T00:48:05.447Z,900.00
2023-04-26T00:49:05.433Z,897.00
2023-04-26T00:50:06.465Z,881.00
2023-04-26T00:51:05.526Z,880.00
2023-04-26T00:52:06.520Z,889.00
2023-04-26T00:53:06.549Z,892.00
2023-04-26T00:54:05.586Z,871.00
2023-04-26T00:55:06.601Z,886.00
2023-04-26T00:56:06.775Z,888.00
2023-04-26T00:57:06.694Z,901.00
2023-04-26T00:58:05.700Z,883.00
2023-04-26T00:59:05.708Z,886.00
2023-04-26T01:00:06.733Z,876.00
2023-04-26T01:01:06.844Z,885.00
2023-04-26T01:02:05.840Z,872.00
2023-04-26T01:03:05.957Z,885.00
2023-04-26T01:04:06.992Z,875.00
2023-04-26T01:05:06.954Z,888.00
2023-04-26T01:06:05.851Z,871.00
2023-04-26T01:07:06.895Z,886.00
2023-04-26T01:08:05.934Z,858.00
2023-04-26T01:09:06.929Z,868.00
2023-04-26T01:10:07.493Z,851.00
2023-04-26T01:11:06.003Z,869.00
2023-04-26T01:12:07.032Z,880.00
2023-04-26T01:13:06.046Z,871.00
2023-04-26T01:14:06.122Z,871.00
2023-04-26T01:15:06.107Z,879.00
2023-04-26T01:16:07.134Z,855.00
2023-04-26T01:17:06.305Z,866.00
2023-04-26T01:18:06.265Z,865.00
2023-04-26T01:19:07.252Z,860.00
2023-04-26T01:20:06.308Z,876.00
2023-04-26T01:21:07.379Z,874.00
2023-04-26T01:22:07.381Z,858.00
2023-04-26T01:23:07.510Z,857.00
2023-04-26T01:24:07.451Z,866.00
2023-04-26T01:25:06.472Z,854.00
2023-04-26T01:26:07.866Z,868.00
2023-04-26T01:27:06.533Z,865.00
2023-04-26T01:28:07.559Z,874.00
2023-04-26T01:29:06.599Z,855.00
2023-04-26T01:30:06.644Z,842.00
2023-04-26T01:31:07.734Z,867.00
2023-04-26T01:32:06.700Z,832.00
2023-04-26T01:33:07.769Z,873.00
2023-04-26T01:34:07.796Z,836.00
2023-04-26T01:35:06.791Z,870.00
2023-04-26T01:36:06.837Z,857.00
2023-04-26T01:37:07.940Z,870.00
2023-04-26T01:38:06.918Z,857.00
2023-04-26T01:39:07.942Z,841.00
2023-04-26T01:40:08.008Z,841.00
2023-04-26T01:41:07.003Z,850.00
2023-04-26T01:42:07.046Z,848.00
2023-04-26T01:43:07.082Z,834.00
2023-04-26T01:44:08.102Z,851.00
2023-04-26T01:45:08.156Z,849.00
2023-04-26T01:46:07.204Z,840.00
2023-04-26T01:47:08.214Z,866.00
2023-04-26T01:48:08.345Z,862.00
2023-04-26T01:49:08.282Z,847.00
2023-04-26T01:50:08.911Z,841.00
2023-04-26T01:51:07.327Z,834.00
2023-04-26T01:52:08.350Z,835.00
2023-04-26T01:53:07.435Z,861.00
2023-04-26T01:54:08.426Z,839.00
2023-04-26T01:55:08.461Z,846.00
2023-04-26T01:56:08.489Z,844.00
2023-04-26T01:57:08.521Z,833.00
2023-04-26T01:58:07.549Z,836.00
2023-04-26T01:59:07.604Z,855.00
2023-04-26T02:00:07.645Z,853.00
2023-04-26T02:01:08.701Z,851.00
2023-04-26T02:02:08.733Z,840.00
2023-04-26T02:03:07.868Z,816.00
2023-04-26T02:04:08.762Z,843.00
2023-04-26T02:05:08.828Z,836.00
2023-04-26T02:06:08.863Z,816.00
2023-04-26T02:07:07.895Z,830.00
2023-04-26T02:08:08.898Z,828.00
2023-04-26T02:09:07.916Z,826.00
2023-04-26T02:10:08.946Z,834.00
2023-04-26T02:11:08.011Z,822.00
2023-04-26T02:12:09.020Z,847.00
2023-04-26T02:13:09.057Z,826.00
2023-04-26T02:14:09.074Z,843.00
2023-04-26T02:15:08.109Z,826.00
2023-04-26T02:16:08.173Z,829.00
2023-04-26T02:17:08.190Z,815.00
2023-04-26T02:18:08.261Z,820.00
2023-04-26T02:19:09.293Z,825.00
2023-04-26T02:20:09.306Z,816.00
2023-04-26T02:21:08.317Z,833.00
2023-04-26T02:22:09.381Z,828.00
2023-04-26T02:23:09.435Z,828.00
2023-04-26T02:24:08.428Z,821.00
2023-04-26T02:25:09.460Z,836.00
2023-04-26T02:26:09.487Z,830.00
2023-04-26T02:27:08.544Z,823.00
2023-04-26T02:28:09.578Z,829.00
2023-04-26T02:29:09.595Z,821.00
2023-04-26T02:30:09.622Z,827.00
2023-04-26T02:31:08.719Z,845.00
2023-04-26T02:32:09.700Z,828.00
2023-04-26T02:33:09.757Z,812.00
2023-04-26T02:34:08.763Z,824.00
2023-04-26T02:35:09.808Z,830.00
2023-04-26T02:36:09.856Z,810.00
2023-04-26T02:37:09.883Z,807.00
2023-04-26T02:38:09.954Z,841.00
2023-04-26T02:39:09.998Z,822.00
2023-04-26T02:40:09.972Z,831.00
2023-04-26T02:41:10.028Z,834.00
2023-04-26T02:42:09.556Z,832.00
2023-04-26T02:43:10.104Z,826.00
2023-04-26T02:44:10.128Z,813.00
2023-04-26T02:45:10.160Z,804.00
2023-04-26T02:46:09.255Z,825.00
2023-04-26T02:47:10.431Z,829.00
2023-04-26T02:48:09.355Z,815.00
2023-04-26T02:49:10.332Z,828.00
2023-04-26T02:50:10.389Z,836.00
2023-04-26T02:51:10.428Z,826.00
2023-04-26T02:52:10.460Z,821.00
2023-04-26T02:53:09.522Z,797.00
2023-04-26T02:54:10.602Z,832.00
2023-04-26T02:55:10.600Z,826.00
2023-04-26T02:56:10.663Z,822.00
2023-04-26T02:57:10.700Z,813.00
2023-04-26T02:58:10.775Z,819.00
2023-04-26T02:59:10.800Z,812.00
2023-04-26T03:00:10.850Z,809.00
2023-04-26T03:01:10.894Z,807.00
2023-04-26T03:02:09.954Z,809.00
2023-04-26T03:03:10.064Z,821.00
2023-04-26T03:04:10.160Z,793.00
2023-04-26T03:05:11.060Z,795.00
2023-04-26T03:06:10.098Z,799.00
2023-04-26T03:07:10.146Z,806.00
2023-04-26T03:08:11.182Z,809.00
2023-04-26T03:09:11.261Z,816.00
2023-04-26T03:10:11.299Z,800.00
2023-04-26T03:11:10.321Z,805.00
2023-04-26T03:12:11.360Z,805.00
2023-04-26T03:13:11.400Z,801.00
2023-04-26T03:14:11.467Z,789.00
2023-04-26T03:15:10.502Z,787.00
2023-04-26T03:16:10.546Z,798.00
2023-04-26T03:17:11.586Z,806.00
2023-04-26T03:18:11.691Z,800.00
2023-04-26T03:19:10.660Z,805.00
2023-04-26T03:20:10.720Z,798.00
2023-04-26T03:21:11.763Z,792.00
2023-04-26T03:22:11.807Z,807.00
2023-04-26T03:23:11.825Z,786.00
2023-04-26T03:24:11.895Z,793.00
2023-04-26T03:25:10.913Z,770.00
2023-04-26T03:26:11.967Z,797.00
2023-04-26T03:27:11.987Z,793.00
2023-04-26T03:28:12.029Z,799.00
2023-04-26T03:29:11.063Z,799.00
2023-04-26T03:30:12.105Z,778.00
2023-04-26T03:31:12.187Z,793.00
2023-04-26T03:32:12.285Z,776.00
2023-04-26T03:33:12.270Z,784.00
2023-04-26T03:34:12.225Z,768.00
2023-04-26T03:35:12.247Z,791.00
2023-04-26T03:36:11.244Z,808.00
2023-04-26T03:37:12.247Z,780.00
2023-04-26T03:38:11.235Z,768.00
2023-04-26T03:39:12.237Z,773.00
2023-04-26T03:40:12.230Z,810.00
2023-04-26T03:41:12.226Z,792.00
2023-04-26T03:42:12.315Z,783.00
2023-04-26T03:43:12.233Z,788.00
2023-04-26T03:44:11.263Z,784.00
2023-04-26T03:45:12.328Z,784.00
2023-04-26T03:46:12.408Z,784.00
2023-04-26T03:47:11.434Z,779.00
2023-04-26T03:48:12.564Z,779.00
2023-04-26T03:49:11.552Z,782.00
2023-04-26T03:50:11.598Z,776.00
2023-04-26T03:51:11.671Z,779.00
2023-04-26T03:52:12.736Z,777.00
2023-04-26T03:53:12.830Z,785.00
2023-04-26T03:54:12.863Z,785.00
2023-04-26T03:55:12.920Z,769.00
2023-04-26T03:56:12.970Z,772.00
2023-04-26T03:57:12.030Z,788.00
2023-04-26T03:58:13.111Z,777.00
2023-04-26T03:59:12.154Z,759.00
2023-04-26T04:00:12.230Z,790.00
2023-04-26T04:01:13.280Z,787.00
2023-04-26T04:02:13.430Z,791.00
2023-04-26T04:03:13.643Z,771.00
2023-04-26T04:04:12.741Z,779.00
2023-04-26T04:05:12.559Z,759.00
2023-04-26T04:06:13.545Z,776.00
2023-04-26T04:07:12.614Z,771.00
2023-04-26T04:08:12.667Z,782.00
2023-04-26T04:09:13.718Z,761.00
2023-04-26T04:10:14.042Z,776.00
2023-04-26T04:11:12.862Z,762.00
2023-04-26T04:12:13.924Z,771.00
2023-04-26T04:13:13.124Z,755.00
2023-04-26T04:14:14.061Z,770.00
2023-04-26T04:15:14.097Z,772.00
2023-04-26T04:16:14.147Z,776.00
2023-04-26T04:17:13.229Z,777.00
2023-04-26T04:18:13.356Z,762.00
2023-04-26T04:19:14.320Z,767.00
2023-04-26T04:20:14.374Z,754.00
2023-04-26T04:21:14.422Z,773.00
2023-04-26T04:22:13.501Z,764.00
2023-04-26T04:23:14.540Z,756.00
2023-04-26T04:24:14.589Z,753.00
2023-04-26T04:25:14.688Z,760.00
2023-04-26T04:26:14.683Z,748.00
2023-04-26T04:27:13.748Z,756.00
2023-04-26T04:28:14.804Z,774.00
2023-04-26T04:29:13.839Z,754.00
2023-04-26T04:30:15.034Z,763.00
2023-04-26T04:31:14.956Z,748.00
2023-04-26T04:32:14.985Z,753.00
2023-04-26T04:33:14.029Z,758.00
2023-04-26T04:34:14.079Z,744.00
2023-04-26T04:35:15.130Z,761.00
2023-04-26T04:36:14.189Z,756.00
2023-04-26T04:37:14.249Z,755.00
2023-04-26T04:38:15.298Z,746.00
2023-04-26T04:39:14.324Z,752.00
2023-04-26T04:40:14.387Z,760.00
2023-04-26T04:41:14.480Z,740.00
2023-04-26T04:42:14.483Z,753.00
2023-04-26T04:43:15.542Z,755.00
2023-04-26T04:44:15.576Z,758.00
2023-04-26T04:45:15.624Z,755.00
2023-04-26T04:46:14.704Z,738.00
2023-04-26T04:47:15.708Z,725.00
2023-04-26T04:48:15.731Z,728.00
2023-04-26T04:49:15.803Z,744.00
2023-04-26T04:50:15.851Z,739.00
2023-04-26T04:51:15.858Z,727.00
2023-04-26T04:52:16.248Z,750.00
2023-04-26T04:53:16.073Z,730.00
2023-04-26T04:54:16.068Z,723.00
2023-04-26T04:55:16.123Z,734.00
2023-04-26T04:56:16.213Z,739.00
2023-04-26T04:57:16.198Z,718.00
2023-04-26T04:58:16.200Z,740.00
2023-04-26T04:59:16.232Z,730.00
2023-04-26T05:00:16.296Z,741.00
2023-04-26T05:01:15.325Z,728.00
2023-04-26T05:02:15.553Z,743.00
2023-04-26T05:03:15.504Z,719.00
2023-04-26T05:04:15.583Z,737.00
2023-04-26T05:05:15.513Z,727.00
2023-04-26T05:06:16.424Z,725.00
2023-04-26T05:07:15.498Z,736.00
2023-04-26T05:08:16.494Z,724.00
2023-04-26T05:09:15.514Z,740.00
2023-04-26T05:10:16.552Z,722.00
2023-04-26T05:11:15.579Z,731.00
2023-04-26T05:12:16.597Z,725.00
2023-04-26T05:13:16.660Z,731.00
2023-04-26T05:14:16.661Z,725.00
2023-04-26T05:15:15.733Z,721.00
2023-04-26T05:16:16.742Z,726.00
2023-04-26T05:17:16.782Z,739.00
2023-04-26T05:18:16.909Z,747.00
2023-04-26T05:19:16.810Z,743.00
2023-04-26T05:20:15.934Z,758.00
2023-04-26T05:21:15.901Z,756.00
2023-04-26T05:22:15.901Z,763.00
2023-04-26T05:23:15.921Z,762.00
2023-04-26T05:24:15.920Z,760.00
2023-04-26T05:25:15.993Z,750.00
2023-04-26T05:26:16.973Z,779.00
2023-04-26T05:27:17.009Z,764.00
2023-04-26T05:28:17.028Z,770.00
2023-04-26T05:29:17.015Z,773.00
2023-04-26T05:30:17.027Z,778.00
2023-04-26T05:31:17.072Z,791.00
2023-04-26T05:32:17.070Z,791.00
2023-04-26T05:33:17.169Z,797.00
2023-04-26T05:34:17.297Z,826.00
2023-04-26T05:35:17.677Z,844.00
2023-04-26T05:36:17.268Z,822.00
2023-04-26T05:37:17.416Z,711.00
2023-04-26T05:38:17.618Z,681.00
2023-04-26T05:39:17.429Z,734.00
2023-04-26T05:40:17.426Z,732.00
2023-04-26T05:41:16.438Z,675.00
2023-04-26T05:42:18.196Z,673.00
2023-04-26T05:43:17.574Z,736.00
2023-04-26T05:44:16.771Z,882.00
2023-04-26T05:45:17.995Z,916.00
2023-04-26T05:46:18.217Z,931.00
2023-04-26T05:47:18.691Z,960.00
2023-04-26T05:48:16.760Z,962.00
2023-04-26T05:49:18.166Z,963.00
2023-04-26T05:50:17.037Z,969.00
2023-04-26T05:51:19.758Z,976.00
2023-04-26T05:52:18.610Z,864.00
2023-04-26T05:53:18.297Z,641.00
2023-04-26T05:54:18.359Z,489.00
2023-04-26T05:55:19.153Z,476.00
2023-04-26T05:57:35.794Z,500.00
2023-04-26T05:58:36.733Z,500.00
2023-04-26T05:59:36.735Z,500.00
2023-04-26T06:00:36.705Z,500.00
2023-04-26T06:01:36.709Z,500.00
2023-04-26T06:02:35.887Z,513.00
2023-04-26T06:03:37.274Z,512.00
2023-04-26T06:04:36.838Z,500.00
2023-04-26T06:05:36.726Z,515.00
2023-04-26T06:06:36.670Z,532.00
2023-04-26T06:07:35.652Z,534.00
2023-04-26T06:08:36.668Z,561.00
2023-04-26T06:09:36.653Z,550.00
2023-04-26T06:10:35.628Z,564.00
2023-04-26T06:11:35.636Z,567.00
2023-04-26T06:12:36.636Z,562.00
2023-04-26T06:13:35.621Z,567.00
2023-04-26T06:14:36.613Z,561.00
2023-04-26T06:15:35.602Z,536.00
2023-04-26T06:16:36.667Z,536.00
2023-04-26T06:17:36.673Z,538.00
2023-04-26T06:18:36.622Z,541.00
2023-04-26T06:19:36.591Z,554.00
2023-04-26T06:20:36.636Z,556.00
2023-04-26T06:21:35.772Z,551.00
2023-04-26T06:22:35.747Z,548.00
2023-04-26T06:23:35.808Z,545.00
2023-04-26T06:24:35.834Z,548.00
2023-04-26T06:25:36.912Z,539.00
2023-04-26T06:26:36.975Z,537.00
2023-04-26T06:27:35.983Z,543.00
2023-04-26T06:28:37.013Z,537.00
2023-04-26T06:29:37.059Z,533.00
2023-04-26T06:30:37.153Z,533.00
2023-04-26T06:31:36.234Z,534.00
2023-04-26T06:32:37.202Z,531.00
2023-04-26T06:33:37.230Z,532.00
2023-04-26T06:34:37.245Z,531.00
2023-04-26T06:35:37.268Z,528.00
2023-04-26T06:36:37.337Z,529.00
2023-04-26T06:37:37.379Z,534.00
2023-04-26T06:38:36.365Z,524.00
2023-04-26T06:39:37.400Z,524.00
2023-04-26T06:40:37.495Z,526.00
2023-04-26T06:41:37.470Z,523.00
2023-04-26T06:42:37.507Z,522.00
2023-04-26T06:43:37.577Z,518.00
2023-04-26T06:44:37.581Z,521.00
2023-04-26T06:45:36.598Z,512.00
2023-04-26T06:46:37.694Z,516.00
2023-04-26T06:47:37.710Z,520.00
2023-04-26T06:48:37.745Z,519.00
2023-04-26T06:49:37.749Z,513.00
2023-04-26T06:50:37.798Z,512.00
2023-04-26T06:51:37.871Z,501.00
2023-04-26T06:52:37.979Z,502.00
2023-04-26T06:53:38.021Z,519.00
2023-04-26T06:54:45.996Z,508.00
2023-04-26T06:55:37.937Z,508.00
2023-04-26T06:56:37.931Z,506.00
2023-04-26T06:57:36.958Z,501.00
2023-04-26T06:58:36.965Z,498.00
2023-04-26T06:59:37.919Z,490.00
2023-04-26T07:00:38.020Z,503.00
2023-04-26T07:01:37.932Z,501.00
2023-04-26T07:02:38.213Z,502.00
2023-04-26T07:03:37.980Z,503.00
2023-04-26T07:04:37.206Z,504.00
2023-04-26T07:05:37.886Z,511.00
2023-04-26T07:06:36.881Z,502.00
2023-04-26T07:07:36.880Z,501.00
2023-04-26T07:08:37.876Z,505.00
2023-04-26T07:09:37.922Z,503.00
2023-04-26T07:10:38.137Z,509.00
2023-04-26T07:11:36.915Z,505.00
2023-04-26T07:12:37.943Z,501.00
2023-04-26T07:13:38.455Z,503.00
2023-04-26T07:14:39.438Z,506.00
2023-04-26T07:15:38.454Z,508.00
2023-04-26T07:16:37.312Z,501.00
2023-04-26T07:17:38.214Z,505.00
2023-04-26T07:18:38.221Z,506.00
2023-04-26T07:19:37.218Z,507.00
2023-04-26T07:20:37.240Z,506.00
2023-04-26T07:21:37.237Z,516.00
2023-04-26T07:22:38.273Z,509.00
2023-04-26T07:23:38.286Z,509.00
2023-04-26T07:24:38.290Z,509.00
2023-04-26T07:25:38.362Z,513.00
2023-04-26T07:26:37.340Z,506.00
2023-04-26T07:27:38.345Z,509.00
2023-04-26T07:28:38.382Z,501.00
2023-04-26T07:29:38.545Z,509.00
2023-04-26T07:30:37.409Z,502.00
2023-04-26T07:31:37.422Z,499.00
2023-04-26T07:32:37.490Z,518.00
2023-04-26T07:33:38.618Z,509.00
2023-04-26T07:34:37.462Z,517.00
2023-04-26T07:35:38.495Z,513.00
2023-04-26T07:36:38.520Z,507.00
2023-04-26T07:37:38.528Z,507.00
2023-04-26T07:38:37.557Z,506.00
2023-04-26T07:39:38.565Z,506.00
2023-04-26T07:40:38.598Z,501.00
2023-04-26T07:41:38.762Z,507.00
2023-04-26T07:42:37.625Z,508.00
2023-04-26T07:43:38.683Z,506.00
2023-04-26T07:44:38.710Z,508.00
2023-04-26T07:45:37.746Z,505.00
2023-04-26T07:46:38.736Z,506.00
2023-04-26T07:47:38.881Z,500.00
2023-04-26T07:48:37.988Z,500.00
2023-04-26T07:49:38.828Z,488.00
2023-04-26T07:50:38.866Z,525.00
2023-04-26T07:51:38.896Z,539.00
2023-04-26T07:52:38.955Z,561.00
2023-04-26T07:53:39.005Z,574.00
2023-04-26T07:54:39.026Z,400.00
2023-04-26T07:55:38.176Z,400.00
2023-04-26T07:56:39.074Z,400.00
2023-04-26T07:57:39.092Z,458.00
2023-04-26T07:58:39.260Z,500.00
2023-04-26T07:59:39.092Z,558.00
2023-04-26T08:00:39.172Z,635.00
2023-04-26T08:01:39.183Z,791.00
2023-04-26T08:03:38.435Z,888.00
2023-04-26T08:04:39.355Z,903.00
2023-04-26T08:05:39.581Z,946.00
2023-04-26T08:06:39.156Z,1012.00
2023-04-26T08:07:38.192Z,1153.00
2023-04-26T08:08:38.134Z,1208.00
2023-04-26T08:09:39.119Z,1258.00
2023-04-26T08:10:38.116Z,1293.00
2023-04-26T08:11:39.162Z,1344.00
2023-04-26T08:12:39.166Z,1385.00
2023-04-26T08:13:39.249Z,1428.00
2023-04-26T08:14:39.231Z,1477.00
2023-04-26T08:15:39.270Z,1499.00
2023-04-26T08:16:38.417Z,1525.00
2023-04-26T08:17:38.382Z,1562.00
2023-04-26T08:18:39.404Z,1589.00
2023-04-26T08:19:39.381Z,1620.00
2023-04-26T08:20:39.402Z,1632.00
2023-04-26T08:21:38.432Z,1656.00
2023-04-26T08:22:39.429Z,1678.00
2023-04-26T08:23:39.463Z,1729.00
2023-04-26T08:24:39.478Z,1737.00
2023-04-26T08:25:39.500Z,1747.00
2023-04-26T08:26:39.497Z,1775.00
2023-04-26T08:27:39.500Z,1801.00
2023-04-26T08:28:38.547Z,1834.00
2023-04-26T08:29:38.671Z,1886.00
2023-04-26T08:30:39.508Z,1916.00
2023-04-26T08:31:38.742Z,1976.00
2023-04-26T08:32:38.615Z,1989.00
2023-04-26T08:33:38.567Z,1962.00
2023-04-26T08:34:38.500Z,1980.00
2023-04-26T08:35:39.501Z,1972.00
2023-04-26T08:36:38.492Z,1986.00
2023-04-26T08:37:39.503Z,2075.00
2023-04-26T08:38:39.499Z,2068.00
2023-04-26T08:39:38.498Z,2070.00
2023-04-26T08:40:39.609Z,2075.00
2023-04-26T08:41:38.522Z,2051.00
2023-04-26T08:42:39.535Z,1988.00
2023-04-26T08:43:39.987Z,1928.00
2023-04-26T08:44:39.639Z,1801.00
2023-04-26T08:45:39.719Z,1646.00
2023-04-26T08:46:39.767Z,1603.00
2023-04-26T08:47:39.685Z,1510.00
2023-04-26T08:48:38.682Z,1549.00
2023-04-26T08:49:39.957Z,1503.00
2023-04-26T08:50:38.728Z,1479.00
2023-04-26T08:51:39.729Z,1334.00
2023-04-26T08:52:38.762Z,1462.00
2023-04-26T08:53:39.768Z,1332.00
2023-04-26T08:54:39.846Z,1244.00
2023-04-26T08:55:38.826Z,1191.00
2023-04-26T08:56:39.895Z,1210.00
2023-04-26T08:57:38.929Z,1240.00
2023-04-26T08:58:40.078Z,1151.00
2023-04-26T08:59:39.992Z,1317.00
2023-04-26T09:00:39.062Z,1362.00
2023-04-26T09:01:40.148Z,1510.00
2023-04-26T09:02:40.334Z,1556.00
2023-04-26T09:03:39.223Z,1607.00
2023-04-26T09:04:40.355Z,1667.00
2023-04-26T09:05:40.230Z,1683.00
2023-04-26T09:06:40.278Z,1724.00
2023-04-26T09:07:40.318Z,1764.00
2023-04-26T09:08:40.510Z,1810.00
2023-04-26T09:09:39.407Z,1849.00
2023-04-26T09:10:40.397Z,1878.00
2023-04-26T09:11:39.718Z,1915.00
2023-04-26T09:12:39.436Z,1951.00
2023-04-26T09:13:39.664Z,1982.00
2023-04-26T09:14:40.396Z,2004.00
2023-04-26T09:15:40.485Z,2017.00
2023-04-26T09:16:39.475Z,2043.00
2023-04-26T09:17:39.543Z,2063.00
2023-04-26T09:18:40.536Z,2070.00
2023-04-26T09:19:40.520Z,2080.00
2023-04-26T09:20:40.510Z,2109.00
2023-04-26T09:21:40.526Z,2125.00
2023-04-26T09:22:40.514Z,2132.00
2023-04-26T09:23:40.534Z,2160.00
2023-04-26T09:24:39.527Z,2178.00
2023-04-26T09:25:39.537Z,2192.00
2023-04-26T09:26:39.567Z,2231.00
2023-04-26T09:27:40.587Z,2255.00
2023-04-26T09:28:39.569Z,2268.00
2023-04-26T09:29:40.611Z,2305.00
2023-04-26T09:30:40.671Z,2312.00
2023-04-26T09:31:40.732Z,2332.00
2023-04-26T09:32:40.771Z,2353.00
2023-04-26T09:33:40.831Z,2353.00
2023-04-26T09:34:40.801Z,2374.00
2023-04-26T09:35:40.826Z,2416.00
2023-04-26T09:36:39.817Z,2428.00
2023-04-26T09:37:54.400Z,2415.00
2023-04-26T09:38:40.854Z,2417.00
2023-04-26T09:39:40.869Z,2426.00
2023-04-26T09:40:40.813Z,2446.00
2023-04-26T09:41:40.832Z,2462.00
2023-04-26T09:42:40.790Z,2516.00
2023-04-26T09:43:40.776Z,2530.00
2023-04-26T09:44:39.770Z,2546.00
2023-04-26T09:45:40.764Z,2541.00
2023-04-26T09:46:40.797Z,2575.00
2023-04-26T09:47:40.883Z,2575.00
2023-04-26T09:48:40.849Z,2598.00
2023-04-26T09:49:41.031Z,2624.00
2023-04-26T09:50:39.741Z,2552.00
2023-04-26T09:51:39.730Z,2565.00
2023-04-26T09:52:39.720Z,2556.00
2023-04-26T09:53:46.539Z,2521.00
2023-04-26T09:54:41.571Z,2522.00
2023-04-26T09:55:40.718Z,2524.00
2023-04-26T09:56:40.695Z,2518.00
2023-04-26T09:57:40.689Z,2504.00
2023-04-26T09:58:40.724Z,2502.00
2023-04-26T09:59:39.672Z,2468.00
2023-04-26T10:00:40.696Z,2474.00
2023-04-26T10:01:40.686Z,2459.00
2023-04-26T10:02:39.719Z,2447.00
2023-04-26T10:03:39.927Z,2436.00
2023-04-26T10:04:40.668Z,2415.00
2023-04-26T10:05:40.665Z,2409.00
2023-04-26T10:06:39.707Z,2412.00
2023-04-26T10:07:40.750Z,2391.00
2023-04-26T10:08:40.820Z,2375.00
2023-04-26T10:09:39.890Z,2364.00
2023-04-26T10:10:39.956Z,2360.00
2023-04-26T10:11:41.014Z,2355.00
2023-04-26T10:12:40.037Z,2356.00
2023-04-26T10:13:40.116Z,2321.00
2023-04-26T10:14:40.182Z,2301.00
2023-04-26T10:15:41.273Z,2280.00
2023-04-26T10:16:41.463Z,2268.00
2023-04-26T10:17:41.367Z,2240.00
2023-04-26T10:18:40.399Z,2239.00
2023-04-26T10:19:41.479Z,2209.00
2023-04-26T10:20:41.528Z,2191.00
2023-04-26T10:21:41.588Z,2167.00
2023-04-26T10:22:41.633Z,2128.00
2023-04-26T10:23:40.692Z,2121.00
2023-04-26T10:24:41.739Z,2079.00
2023-04-26T10:25:41.756Z,2055.00
2023-04-26T10:26:41.791Z,2020.00
2023-04-26T10:27:41.949Z,2013.00
2023-04-26T10:28:41.888Z,2005.00
2023-04-26T10:29:40.954Z,1986.00
2023-04-26T10:30:42.005Z,1953.00
2023-04-26T10:31:42.127Z,1973.00
2023-04-26T10:32:42.156Z,1949.00
2023-04-26T10:33:42.178Z,1943.00
2023-04-26T10:34:42.258Z,1939.00
2023-04-26T10:35:42.299Z,1926.00
2023-04-26T10:36:42.357Z,1928.00
2023-04-26T10:37:42.437Z,1913.00
2023-04-26T10:38:42.481Z,1920.00
2023-04-26T10:39:42.543Z,1887.00
2023-04-26T10:40:42.706Z,1896.00
2023-04-26T10:41:42.612Z,1701.00
2023-04-26T10:42:42.630Z,1702.00
2023-04-26T10:43:42.676Z,1633.00
2023-04-26T10:44:41.698Z,1369.00
2023-04-26T10:45:41.752Z,1368.00
2023-04-26T10:46:43.024Z,1253.00
2023-04-26T10:47:41.825Z,1280.00
2023-04-26T10:48:41.840Z,1475.00
2023-04-26T10:49:41.922Z,1555.00
2023-04-26T10:50:41.945Z,1622.00
2023-04-26T10:51:43.226Z,1661.00
2023-04-26T10:52:41.996Z,1692.00
2023-04-26T10:53:43.002Z,1715.00
2023-04-26T10:54:42.988Z,1719.00
2023-04-26T10:55:43.248Z,1756.00
2023-04-26T10:56:43.020Z,1748.00
2023-04-26T10:57:42.017Z,1771.00
2023-04-26T10:58:41.980Z,1786.00
2023-04-26T10:59:54.008Z,1803.00
2023-04-26T11:00:42.987Z,1805.00
2023-04-26T11:01:42.023Z,1806.00
2023-04-26T11:02:42.019Z,1812.00
2023-04-26T11:03:42.264Z,1823.00
2023-04-26T11:04:42.023Z,1839.00
2023-04-26T11:05:41.939Z,1850.00
2023-04-26T11:06:42.943Z,1843.00
2023-04-26T11:07:42.551Z,1843.00
2023-04-26T11:08:42.919Z,1841.00
2023-04-26T11:09:43.044Z,1845.00
2023-04-26T11:10:43.013Z,1821.00
2023-04-26T11:11:43.084Z,1826.00
2023-04-26T11:12:43.153Z,1843.00
2023-04-26T11:13:43.193Z,1839.00
2023-04-26T11:14:43.254Z,1824.00
2023-04-26T11:15:43.335Z,1838.00
2023-04-26T11:16:44.218Z,1846.00
2023-04-26T11:17:43.438Z,1840.00
2023-04-26T11:18:43.435Z,1850.00
2023-04-26T11:19:43.524Z,1856.00
2023-04-26T11:20:43.526Z,1858.00
2023-04-26T11:21:43.587Z,1840.00
2023-04-26T11:22:43.622Z,1835.00
2023-04-26T11:23:42.687Z,1837.00
2023-04-26T11:24:43.691Z,1833.00
2023-04-26T11:25:42.812Z,1841.00
2023-04-26T11:26:43.746Z,1843.00
2023-04-26T11:27:43.801Z,1830.00
2023-04-26T11:28:43.834Z,1838.00
2023-04-26T11:29:43.921Z,1846.00
2023-04-26T11:30:43.532Z,1829.00
2023-04-26T11:31:43.989Z,1807.00
2023-04-26T11:32:44.008Z,1804.00
2023-04-26T11:33:44.026Z,1817.00
2023-04-26T11:34:44.066Z,1786.00
2023-04-26T11:35:44.090Z,1781.00
2023-04-26T11:36:44.132Z,1857.00
2023-04-26T11:37:43.182Z,1845.00
2023-04-26T11:38:43.224Z,1881.00
2023-04-26T11:39:43.265Z,1909.00
2023-04-26T11:40:44.323Z,1908.00
2023-04-26T11:41:43.412Z,1898.00
2023-04-26T11:42:44.434Z,1900.00
2023-04-26T11:43:43.551Z,1899.00
2023-04-26T11:44:45.697Z,1903.00
2023-04-26T11:45:44.592Z,1901.00
2023-04-26T11:46:44.672Z,1901.00
2023-04-26T11:47:43.686Z,1884.00
2023-04-26T11:48:43.644Z,1885.00
2023-04-26T11:49:43.635Z,1874.00
2023-04-26T11:50:44.637Z,1897.00
2023-04-26T11:51:44.683Z,1888.00
2023-04-26T11:52:44.668Z,1887.00
2023-04-26T11:53:43.669Z,1883.00
2023-04-26T11:54:44.689Z,1877.00
2023-04-26T11:55:43.700Z,1877.00
2023-04-26T11:56:44.710Z,1875.00
2023-04-26T11:57:44.948Z,1873.00
2023-04-26T11:58:44.756Z,1871.00
2023-04-26T11:59:44.811Z,1876.00
2023-04-26T12:00:44.824Z,1869.00
2023-04-26T12:01:43.899Z,1881.00
2023-04-26T12:02:44.947Z,1865.00
2023-04-26T12:03:44.973Z,1861.00
2023-04-26T12:04:44.295Z,1871.00
2023-04-26T12:05:43.962Z,1872.00
2023-04-26T12:06:43.998Z,1860.00
2023-04-26T12:07:45.037Z,1861.00
2023-04-26T12:08:45.074Z,1851.00
2023-04-26T12:09:45.142Z,1846.00
2023-04-26T12:10:45.177Z,1857.00
2023-04-26T12:11:45.249Z,1852.00
2023-04-26T12:12:45.307Z,1848.00
2023-04-26T12:13:44.406Z,1839.00
2023-04-26T12:14:45.406Z,1833.00
2023-04-26T12:15:44.472Z,1838.00
2023-04-26T12:16:45.540Z,1818.00
2023-04-26T12:17:45.644Z,1805.00
2023-04-26T12:18:45.632Z,1827.00
2023-04-26T12:19:44.699Z,1814.00
2023-04-26T12:20:44.753Z,1823.00
2023-04-26T12:21:45.830Z,1804.00
2023-04-26T12:22:45.871Z,1801.00